Time;durP1;ratioP1;P1;durP2;ratioP2;P2;SDS_P1;SDS_P2;PMS_P1;PMS_P2;Temp;Humidity;BMP_temperature;BMP_pressure;BME280_temperature;BME280_humidity;BME280_pressure;Samples;Min_cycle;Max_cycle;Signal;HPM_P1;HPM_P2
2024/01/14 00:01:15;;;;;;;;;48.75;38.00;;;;;2.06;65.72;101785.63;5094619;27;46688;-49
2024/01/14 00:03:41;;;;;;;;;40.00;28.50;;;;;2.08;65.85;101775.97;5116879;27;45491;-48
2024/01/14 00:06:07;;;;;;;;;36.75;29.75;;;;;2.12;65.82;101777.72;5114102;27;45622;-53
2024/01/14 00:08:32;;;;;;;;;49.25;37.00;;;;;2.14;64.82;101772.50;5116766;27;45499;-51
2024/01/14 00:10:57;;;;;;;;;52.00;43.50;;;;;1.97;64.23;101769.88;5115793;27;58341;-48
2024/01/14 00:13:23;;;;;;;;;47.75;36.50;;;;;1.78;65.04;101768.94;5119993;27;49695;-50
2024/01/14 00:15:48;;;;;;;;;39.75;35.50;;;;;1.59;65.21;101761.06;5118320;27;45503;-51
2024/01/14 00:18:13;;;;;;;;;36.50;28.75;;;;;1.57;66.14;101754.03;5118312;27;45531;-52
2024/01/14 00:20:39;;;;;;;;;44.75;31.25;;;;;1.65;66.16;101747.94;5117060;27;45550;-50
2024/01/14 00:23:05;;;;;;;;;48.00;36.00;;;;;1.71;66.02;101747.09;5117580;27;49583;-53
2024/01/14 00:25:31;;;;;;;;;51.00;34.75;;;;;1.73;65.56;101740.06;5104486;27;45481;-51
2024/01/14 00:27:56;;;;;;;;;38.75;27.50;;;;;1.73;66.15;101733.97;5098232;27;45728;-51
2024/01/14 00:30:21;;;;;;;;;48.00;39.25;;;;;1.72;65.92;101727.84;5116261;27;45447;-50
2024/01/14 00:32:47;;;;;;;;;42.75;33.25;;;;;1.72;65.65;101719.97;5115650;27;72985;-50
2024/01/14 00:35:12;;;;;;;;;44.00;36.25;;;;;1.74;65.97;101726.09;5111544;27;69304;-53
2024/01/14 00:37:37;;;;;;;;;40.00;31.25;;;;;1.74;65.74;101719.97;5118899;27;45358;-49
2024/01/14 00:40:06;;;;;;;;;32.50;27.75;;;;;1.75;65.13;101719.13;5111117;27;66915;-50
2024/01/14 00:42:32;;;;;;;;;35.50;26.25;;;;;1.77;65.29;101704.22;5117433;27;45528;-49
2024/01/14 00:44:58;;;;;;;;;34.25;29.50;;;;;1.79;65.34;101702.50;5110547;27;45395;-51
2024/01/14 00:47:23;;;;;;;;;39.25;31.00;;;;;1.81;65.26;101698.09;5112559;27;45718;-50
2024/01/14 00:49:49;;;;;;;;;50.00;32.25;;;;;1.83;64.77;101695.50;5114720;27;46881;-51
2024/01/14 00:52:14;;;;;;;;;35.00;33.75;;;;;1.81;65.27;101685.88;5108881;27;67200;-51
2024/01/14 00:54:39;;;;;;;;;39.00;29.25;;;;;1.83;65.20;101682.38;5118418;27;62131;-52
2024/01/14 00:57:05;;;;;;;;;35.75;29.75;;;;;1.83;65.12;101682.38;5109440;27;64224;-50
2024/01/14 00:59:30;;;;;;;;;33.25;27.50;;;;;1.83;64.91;101677.16;5118886;27;56494;-51
2024/01/14 01:01:55;;;;;;;;;40.50;31.25;;;;;1.82;64.64;101676.25;5109433;27;45384;-51
2024/01/14 01:04:21;;;;;;;;;35.25;28.25;;;;;1.79;65.39;101682.38;5119374;27;68095;-50
2024/01/14 01:06:46;;;;;;;;;52.50;36.75;;;;;1.80;64.97;101678.00;5113206;27;45400;-49
2024/01/14 01:09:11;;;;;;;;;35.25;27.75;;;;;1.78;65.28;101666.63;5121265;27;46888;-48
2024/01/14 01:11:37;;;;;;;;;45.25;31.75;;;;;1.77;65.32;101670.13;5121634;27;45756;-51
2024/01/14 01:14:02;;;;;;;;;42.25;29.75;;;;;1.78;65.42;101664.00;5118939;27;52358;-50
2024/01/14 01:16:28;;;;;;;;;37.25;32.50;;;;;1.76;64.99;101660.50;5119875;27;45568;-51
2024/01/14 01:18:53;;;;;;;;;45.00;33.75;;;;;1.74;65.12;101670.13;5118681;27;67111;-53
2024/01/14 01:21:22;;;;;;;;;41.50;28.00;;;;;1.74;65.00;101678.88;5118072;27;45402;-52
2024/01/14 01:23:48;;;;;;;;;44.50;36.75;;;;;1.75;65.14;101679.75;5121465;27;45432;-53
2024/01/14 01:26:13;;;;;;;;;36.00;23.50;;;;;1.75;65.63;101677.13;5114881;27;45727;-50
2024/01/14 01:28:39;;;;;;;;;31.50;26.25;;;;;1.76;65.61;101674.50;5114267;27;45420;-53
2024/01/14 01:31:04;;;;;;;;;49.50;35.75;;;;;1.79;65.13;101674.50;5118249;27;45368;-48
2024/01/14 01:33:30;;;;;;;;;40.25;31.00;;;;;1.84;65.61;101681.50;5108857;27;45589;-52
2024/01/14 01:35:55;;;;;;;;;30.75;27.00;;;;;1.87;65.64;101671.03;5111280;27;69364;-52
2024/01/14 01:38:20;;;;;;;;;35.50;28.25;;;;;1.91;65.30;101664.88;5112125;27;64810;-52
2024/01/14 01:40:46;;;;;;;;;34.75;26.50;;;;;1.92;65.44;101666.66;5117399;27;67486;-52
2024/01/14 01:43:11;;;;;;;;;34.75;26.75;;;;;1.90;65.21;101666.63;5105598;27;45732;-51
2024/01/14 01:45:37;;;;;;;;;35.25;26.75;;;;;1.93;65.35;101663.13;5107666;27;65255;-51
2024/01/14 01:48:04;;;;;;;;;39.00;28.25;;;;;1.95;65.35;101654.38;5112765;27;46803;-51
2024/01/14 01:50:30;;;;;;;;;31.00;29.00;;;;;1.98;65.26;101650.88;5114519;27;45567;-51
2024/01/14 01:52:55;;;;;;;;;44.00;33.00;;;;;2.00;64.72;101653.53;5120063;27;45290;-51
2024/01/14 01:55:21;;;;;;;;;39.50;30.75;;;;;2.01;65.04;101647.38;5108873;27;45359;-53
2024/01/14 01:57:46;;;;;;;;;40.75;30.00;;;;;1.96;64.44;101645.63;5115776;27;50724;-49
2024/01/14 02:00:12;;;;;;;;;42.75;31.00;;;;;1.88;64.71;101639.53;5115555;27;45451;-50
2024/01/14 02:02:40;;;;;;;;;45.25;34.50;;;;;1.79;64.89;101639.53;5102023;27;45439;-49
2024/01/14 02:05:06;;;;;;;;;31.00;26.25;;;;;1.77;65.39;101629.03;5108422;27;45396;-50
2024/01/14 02:07:32;;;;;;;;;40.50;34.25;;;;;1.76;65.29;101631.63;5135427;27;62636;-48
2024/01/14 02:09:57;;;;;;;;;37.25;25.25;;;;;1.68;64.85;101631.63;5116674;27;45475;-48
2024/01/14 02:12:22;;;;;;;;;29.00;23.75;;;;;1.68;65.60;101631.63;5119309;27;68017;-48
2024/01/14 02:14:48;;;;;;;;;34.50;28.50;;;;;1.68;65.88;101625.53;5095125;27;69200;-49
2024/01/14 02:17:13;;;;;;;;;34.50;31.75;;;;;1.64;64.99;101624.66;5116452;27;59695;-49
2024/01/14 02:19:38;;;;;;;;;43.50;28.75;;;;;1.55;65.57;101624.66;5119744;27;69197;-50
2024/01/14 02:22:08;;;;;;;;;33.75;25.00;;;;;1.55;65.62;101615.06;5119011;27;45184;-51
2024/01/14 02:24:33;;;;;;;;;30.50;26.50;;;;;1.60;65.74;101617.66;5117176;27;45375;-48
2024/01/14 02:27:00;;;;;;;;;32.75;26.50;;;;;1.65;65.75;101608.03;5109959;27;46088;-50
2024/01/14 02:29:28;;;;;;;;;34.50;27.00;;;;;1.71;66.09;101609.78;5116295;27;45529;-50
2024/01/14 02:31:53;;;;;;;;;34.75;22.75;;;;;1.75;65.95;101596.69;5110874;27;45451;-48
2024/01/14 02:34:19;;;;;;;;;44.25;31.25;;;;;1.78;65.25;101603.66;5107091;27;45629;-48
2024/01/14 02:36:44;;;;;;;;;31.25;30.00;;;;;1.74;65.60;101605.41;5107375;27;47176;-49
2024/01/14 02:39:09;;;;;;;;;40.75;32.75;;;;;1.73;65.14;101602.78;5120579;27;45309;-48
2024/01/14 02:41:35;;;;;;;;;30.00;24.25;;;;;1.66;65.24;101594.06;5109959;27;69321;-51
2024/01/14 02:44:00;;;;;;;;;36.75;23.50;;;;;1.62;65.63;101584.44;5118378;27;45533;-50
2024/01/14 02:46:27;;;;;;;;;27.00;26.50;;;;;1.65;66.04;101582.69;5106234;27;69515;-47
2024/01/14 02:48:53;;;;;;;;;34.50;25.00;;;;;1.69;65.67;101577.44;5112372;27;45413;-49
2024/01/14 02:51:18;;;;;;;;;31.75;24.50;;;;;1.72;65.57;101577.44;5115201;27;67909;-50
2024/01/14 02:53:43;;;;;;;;;37.50;26.00;;;;;1.73;65.32;101585.28;5108970;27;69133;-49
2024/01/14 02:56:10;;;;;;;;;30.50;24.00;;;;;1.74;66.03;101579.19;5113760;27;46051;-48
2024/01/14 02:58:35;;;;;;;;;28.00;25.00;;;;;1.73;65.39;101576.56;5106382;27;45519;-49
2024/01/14 03:01:01;;;;;;;;;32.25;26.25;;;;;1.72;65.32;101573.09;5113305;27;45507;-50
2024/01/14 03:03:26;;;;;;;;;21.75;21.25;;;;;1.72;65.68;101567.84;5110575;27;45337;-49
2024/01/14 03:05:52;;;;;;;;;36.50;25.00;;;;;1.73;65.55;101572.19;5116801;27;46228;-52
2024/01/14 03:08:18;;;;;;;;;31.00;24.25;;;;;1.76;65.47;101572.19;5113106;27;45282;-51
2024/01/14 03:10:43;;;;;;;;;28.75;26.50;;;;;1.79;65.58;101563.44;5112974;27;45465;-50
2024/01/14 03:13:09;;;;;;;;;32.25;27.00;;;;;1.81;65.72;101559.06;5109869;27;45487;-49
2024/01/14 03:15:34;;;;;;;;;31.75;27.25;;;;;1.81;65.42;101554.69;5114781;27;46862;-48
2024/01/14 03:18:00;;;;;;;;;33.25;26.25;;;;;1.85;65.29;101562.56;5113210;27;45290;-52
2024/01/14 03:20:25;;;;;;;;;35.25;26.50;;;;;1.86;65.78;101561.69;5103738;27;69414;-52
2024/01/14 03:22:50;;;;;;;;;41.75;32.50;;;;;1.80;64.97;101558.19;5102565;27;69411;-52
2024/01/14 03:25:16;;;;;;;;;27.25;24.00;;;;;1.76;65.23;101551.22;5118730;27;47261;-51
2024/01/14 03:27:41;;;;;;;;;38.25;29.25;;;;;1.78;65.58;101559.06;5111215;27;72076;-50
2024/01/14 03:30:07;;;;;;;;;39.50;29.50;;;;;1.79;65.39;101556.44;5106143;27;65972;-52
2024/01/14 03:32:32;;;;;;;;;35.75;26.00;;;;;1.77;65.28;101547.72;5111720;27;45460;-52
2024/01/14 03:34:58;;;;;;;;;46.75;33.75;;;;;1.75;65.48;101543.34;5116145;27;46972;-50
2024/01/14 03:37:23;;;;;;;;;31.75;27.00;;;;;1.74;65.38;101545.06;5115995;27;48605;-51
2024/01/14 03:39:49;;;;;;;;;39.75;26.75;;;;;1.74;65.95;101546.84;5107682;27;63201;-53
2024/01/14 03:42:14;;;;;;;;;40.50;26.00;;;;;1.74;65.34;101541.59;5106361;27;45473;-52
2024/01/14 03:44:40;;;;;;;;;27.50;22.00;;;;;1.68;65.51;101534.59;5118299;27;60013;-51
2024/01/14 03:47:06;;;;;;;;;29.50;27.25;;;;;1.55;65.42;101538.09;5106857;27;45504;-52
2024/01/14 03:49:31;;;;;;;;;42.75;35.50;;;;;1.44;65.71;101535.50;5110562;27;45454;-49
2024/01/14 03:51:57;;;;;;;;;41.50;34.50;;;;;1.38;66.01;101535.50;5112934;27;45406;-49
2024/01/14 03:54:22;;;;;;;;;29.00;27.00;;;;;1.35;66.09;101539.00;5115273;27;75133;-49
2024/01/14 03:56:47;;;;;;;;;36.00;25.25;;;;;1.35;66.03;101527.63;5113604;27;72246;-51
2024/01/14 03:59:12;;;;;;;;;46.00;30.75;;;;;1.36;66.01;101519.78;5111506;27;69747;-49
2024/01/14 04:01:38;;;;;;;;;44.00;21.25;;;;;1.37;66.02;101513.66;5110976;27;70860;-52
2024/01/14 04:04:04;;;;;;;;;23.75;21.50;;;;;1.40;65.65;101512.78;5113456;27;46076;-48
2024/01/14 04:06:29;;;;;;;;;39.75;33.75;;;;;1.42;66.07;101506.66;5105801;27;73354;-50
2024/01/14 04:08:54;;;;;;;;;38.00;29.50;;;;;1.34;65.12;101508.41;5112157;27;68346;-51
2024/01/14 04:11:20;;;;;;;;;36.50;28.75;;;;;1.26;65.89;101502.28;5114706;27;62427;-51
2024/01/14 04:13:45;;;;;;;;;36.00;26.75;;;;;1.24;66.03;101497.06;5109599;27;74567;-49
2024/01/14 04:16:10;;;;;;;;;41.50;29.00;;;;;1.28;66.06;101492.69;5114160;27;66179;-50
2024/01/14 04:18:36;;;;;;;;;31.00;22.00;;;;;1.28;65.61;101484.84;5113287;27;60563;-47
2024/01/14 04:21:01;;;;;;;;;29.00;19.50;;;;;1.26;65.41;101484.81;5111024;27;70157;-49
2024/01/14 04:23:26;;;;;;;;;44.75;28.00;;;;;1.23;65.88;101481.34;5113110;27;65684;-52
2024/01/14 04:25:52;;;;;;;;;32.00;26.00;;;;;1.13;65.67;101483.97;5118831;27;45346;-51
2024/01/14 04:28:17;;;;;;;;;25.50;22.00;;;;;1.02;65.75;101479.56;5117426;27;68245;-49
2024/01/14 04:30:42;;;;;;;;;44.75;32.50;;;;;0.94;66.06;101479.56;5105936;27;45472;-51
2024/01/14 04:33:08;;;;;;;;;33.75;27.75;;;;;0.84;66.13;101483.06;5112117;27;45295;-50
2024/01/14 04:35:33;;;;;;;;;30.75;21.00;;;;;0.86;66.54;101483.94;5112167;27;70524;-50
2024/01/14 04:37:58;;;;;;;;;25.25;17.50;;;;;0.90;66.31;101483.94;5117385;27;45677;-50
2024/01/14 04:40:24;;;;;;;;;39.00;28.00;;;;;0.91;65.96;101487.44;5118964;27;45386;-49
2024/01/14 04:42:49;;;;;;;;;27.75;22.25;;;;;0.82;66.48;101480.41;5111019;27;75742;-49
2024/01/14 04:45:14;;;;;;;;;35.00;22.50;;;;;0.84;66.74;101483.94;5115029;27;67383;-52
2024/01/14 04:47:40;;;;;;;;;29.00;24.25;;;;;0.84;66.53;101488.31;5115617;27;45729;-51
2024/01/14 04:50:05;;;;;;;;;31.00;24.25;;;;;0.84;66.45;101477.84;5115827;27;45384;-49
2024/01/14 04:52:31;;;;;;;;;50.50;36.00;;;;;0.76;66.84;101477.81;5118162;27;46038;-48
2024/01/14 04:54:56;;;;;;;;;31.75;27.75;;;;;0.69;66.28;101478.66;5117733;27;71110;-50
2024/01/14 04:57:21;;;;;;;;;32.25;20.25;;;;;0.61;67.41;101484.78;5108089;27;69542;-51
2024/01/14 04:59:46;;;;;;;;;23.25;20.00;;;;;0.63;66.77;101484.78;5113061;27;68435;-50
2024/01/14 05:02:12;;;;;;;;;37.50;26.75;;;;;0.71;67.02;101480.41;5114883;27;45989;-50
2024/01/14 05:04:37;;;;;;;;;34.75;26.00;;;;;0.75;66.97;101476.94;5109768;27;73212;-47
2024/01/14 05:07:02;;;;;;;;;29.00;22.00;;;;;0.75;66.85;101470.81;5110970;27;69340;-49
2024/01/14 05:09:28;;;;;;;;;31.50;28.25;;;;;0.72;66.94;101473.41;5113752;27;45665;-47
2024/01/14 05:11:53;;;;;;;;;41.50;31.00;;;;;0.75;66.26;101476.94;5118402;27;46083;-52
2024/01/14 05:14:19;;;;;;;;;40.00;31.75;;;;;0.77;66.57;101469.06;5111827;27;45337;-48
2024/01/14 05:16:44;;;;;;;;;32.25;25.00;;;;;0.71;66.91;101464.69;5117325;27;45548;-50
2024/01/14 05:19:09;;;;;;;;;32.25;29.00;;;;;0.65;66.80;101464.69;5115642;27;45341;-47
2024/01/14 05:21:35;;;;;;;;;25.50;19.75;;;;;0.56;66.38;101468.19;5112135;27;63498;-49
2024/01/14 05:24:00;;;;;;;;;34.50;24.00;;;;;0.50;66.96;101460.31;5104147;27;68476;-49
2024/01/14 05:26:26;;;;;;;;;31.25;25.25;;;;;0.48;66.59;101464.66;5117842;27;69544;-47
2024/01/14 05:28:51;;;;;;;;;41.75;24.00;;;;;0.48;66.76;101462.03;5109782;27;45577;-52
2024/01/14 05:31:16;;;;;;;;;34.25;27.00;;;;;0.39;67.63;101460.28;5113502;27;46189;-48
2024/01/14 05:33:42;;;;;;;;;31.00;24.25;;;;;0.38;67.15;101473.34;5110985;27;69058;-49
2024/01/14 05:36:07;;;;;;;;;31.00;22.25;;;;;0.45;67.41;101459.41;5113375;27;62829;-48
2024/01/14 05:38:32;;;;;;;;;34.50;24.75;;;;;0.54;67.01;101455.97;5112770;27;45369;-47
2024/01/14 05:40:58;;;;;;;;;33.50;24.25;;;;;0.63;67.32;101461.22;5116503;27;74322;-49
2024/01/14 05:43:23;;;;;;;;;27.00;19.00;;;;;0.68;67.19;101456.84;5118471;27;45470;-48
2024/01/14 05:45:48;;;;;;;;;35.50;29.00;;;;;0.65;66.66;101454.22;5114927;27;68277;-50
2024/01/14 05:48:14;;;;;;;;;41.00;29.75;;;;;0.55;67.22;101457.69;5103150;27;70801;-51
2024/01/14 05:50:39;;;;;;;;;30.25;20.75;;;;;0.48;67.34;101451.56;5115296;27;73994;-50
2024/01/14 05:53:05;;;;;;;;;37.25;24.75;;;;;0.49;66.88;101456.78;5113685;27;71975;-49
2024/01/14 05:55:30;;;;;;;;;29.50;23.75;;;;;0.56;66.82;101454.19;5099903;27;45409;-52
2024/01/14 05:57:55;;;;;;;;;29.50;25.25;;;;;0.62;67.06;101459.47;5120736;27;45670;-50
2024/01/14 06:00:22;;;;;;;;;24.50;20.00;;;;;0.69;67.61;101453.34;5116109;27;46167;-51
2024/01/14 06:02:48;;;;;;;;;28.50;25.00;;;;;0.77;67.46;101451.63;5113541;27;45976;-48
2024/01/14 06:05:15;;;;;;;;;31.25;23.75;;;;;0.87;66.51;101454.25;5115767;27;45445;-49
2024/01/14 06:07:40;;;;;;;;;28.25;20.25;;;;;0.93;67.33;101449.88;5116000;27;45545;-47
2024/01/14 06:10:05;;;;;;;;;28.75;24.25;;;;;0.99;66.87;101449.00;5114736;27;73506;-51
2024/01/14 06:12:30;;;;;;;;;37.75;32.75;;;;;1.03;66.74;101455.13;5116040;27;63228;-49
2024/01/14 06:14:56;;;;;;;;;35.75;26.25;;;;;1.02;66.31;101450.75;5118909;27;65951;-51
2024/01/14 06:17:21;;;;;;;;;32.75;22.00;;;;;1.02;66.03;101456.88;5115916;27;64037;-51
2024/01/14 06:19:46;;;;;;;;;32.50;27.75;;;;;1.02;66.15;101449.00;5148955;27;45331;-50
2024/01/14 06:22:12;;;;;;;;;29.00;23.25;;;;;0.99;66.15;101449.88;5114198;27;65502;-50
2024/01/14 06:24:38;;;;;;;;;24.50;18.00;;;;;0.93;66.04;101449.88;5121730;27;45391;-50
2024/01/14 06:27:03;;;;;;;;;30.75;23.25;;;;;0.94;66.27;101449.00;5119671;27;45851;-49
2024/01/14 06:29:29;;;;;;;;;30.25;25.75;;;;;0.98;66.06;101447.28;5119978;27;45411;-48
2024/01/14 06:31:54;;;;;;;;;27.50;23.50;;;;;1.03;66.56;101444.63;5116118;27;45392;-50
2024/01/14 06:34:19;;;;;;;;;29.00;25.00;;;;;1.07;66.20;101444.66;5120197;27;68891;-53
2024/01/14 06:36:45;;;;;;;;;28.25;18.25;;;;;1.13;66.64;101449.00;5114597;27;65198;-49
2024/01/14 06:39:10;;;;;;;;;35.00;25.50;;;;;1.18;66.04;101438.53;5119710;27;47873;-49
2024/01/14 06:41:36;;;;;;;;;33.00;24.50;;;;;1.20;65.98;101444.63;5118666;27;67830;-52
2024/01/14 06:44:01;;;;;;;;;46.75;27.00;;;;;1.22;66.08;101448.13;5119442;27;45454;-52
2024/01/14 06:46:27;;;;;;;;;30.75;22.75;;;;;1.22;66.29;101442.88;5118623;27;45459;-48
2024/01/14 06:48:52;;;;;;;;;34.00;23.25;;;;;1.22;66.14;101441.13;5117941;27;46299;-49
2024/01/14 06:51:18;;;;;;;;;29.25;23.00;;;;;1.23;65.80;101436.78;5121281;27;45168;-52
2024/01/14 06:53:43;;;;;;;;;34.50;24.50;;;;;1.24;65.97;101438.50;5119423;27;65632;-50
2024/01/14 06:56:09;;;;;;;;;31.25;25.00;;;;;1.25;66.17;101443.75;5118329;27;46548;-52
2024/01/14 06:58:34;;;;;;;;;37.25;21.75;;;;;1.28;65.56;101440.28;5117197;27;75713;-49
2024/01/14 07:01:00;;;;;;;;;31.50;21.25;;;;;1.31;65.62;101440.25;5120254;27;45233;-49
2024/01/14 07:03:25;;;;;;;;;28.25;25.00;;;;;1.34;65.62;101436.75;5118695;27;45273;-51
2024/01/14 07:05:50;;;;;;;;;36.75;23.75;;;;;1.35;65.78;101434.13;5119756;27;45416;-52
2024/01/14 07:08:16;;;;;;;;;30.75;24.00;;;;;1.35;65.53;101434.13;5118954;27;46991;-51
2024/01/14 07:10:41;;;;;;;;;34.75;25.00;;;;;1.37;65.38;101431.50;5117796;27;72168;-49
2024/01/14 07:13:06;;;;;;;;;32.25;23.00;;;;;1.38;66.03;101438.50;5117522;27;45989;-52
2024/01/14 07:15:32;;;;;;;;;40.75;26.75;;;;;1.39;65.70;101430.63;5117801;27;66610;-50
2024/01/14 07:17:57;;;;;;;;;30.00;24.25;;;;;1.38;65.77;101423.63;5114522;27;74469;-51
2024/01/14 07:20:22;;;;;;;;;31.75;24.00;;;;;1.38;65.65;101421.00;5119955;27;45413;-48
2024/01/14 07:22:48;;;;;;;;;30.75;24.75;;;;;1.40;65.80;101421.03;5119676;27;60448;-52
2024/01/14 07:25:13;;;;;;;;;32.25;25.00;;;;;1.42;65.47;101421.88;5118959;27;66959;-52
2024/01/14 07:27:38;;;;;;;;;27.75;21.50;;;;;1.43;65.40;101421.00;5118303;27;45385;-50
2024/01/14 07:30:05;;;;;;;;;44.00;25.25;;;;;1.44;65.84;101420.13;5118605;27;61354;-52
2024/01/14 07:32:30;;;;;;;;;32.00;20.75;;;;;1.44;65.34;101420.13;5117975;27;45727;-51
2024/01/14 07:34:56;;;;;;;;;35.00;23.50;;;;;1.43;65.99;101419.25;5111713;27;59059;-49
2024/01/14 07:37:21;;;;;;;;;31.00;24.50;;;;;1.44;65.38;101422.75;5119130;27;46868;-51
2024/01/14 07:39:46;;;;;;;;;34.50;28.25;;;;;1.43;65.54;101419.25;5118973;27;67767;-53
2024/01/14 07:42:12;;;;;;;;;18.25;17.25;;;;;1.43;65.79;101415.75;5118368;27;45690;-52
2024/01/14 07:44:38;;;;;;;;;32.50;25.50;;;;;1.42;65.55;101412.28;5118903;27;45372;-53
2024/01/14 07:47:03;;;;;;;;;32.75;23.50;;;;;1.41;64.94;101418.41;5116457;27;45287;-52
2024/01/14 07:49:28;;;;;;;;;32.25;25.50;;;;;1.41;65.35;101417.50;5115670;27;73299;-51
2024/01/14 07:51:53;;;;;;;;;27.00;23.25;;;;;1.42;65.57;101422.75;5118537;27;45407;-51
2024/01/14 07:54:19;;;;;;;;;27.00;16.25;;;;;1.43;65.34;101423.63;5116303;27;71949;-51
2024/01/14 07:56:45;;;;;;;;;30.25;21.25;;;;;1.43;65.58;101421.00;5117701;27;74307;-51
2024/01/14 07:59:10;;;;;;;;;34.50;24.00;;;;;1.42;65.05;101422.75;5118280;27;45479;-49
2024/01/14 08:01:35;;;;;;;;;21.25;17.25;;;;;1.44;65.31;101426.25;5117267;27;68275;-53
2024/01/14 08:04:01;;;;;;;;;33.00;21.25;;;;;1.46;65.69;101427.13;5118583;27;45436;-49
2024/01/14 08:06:27;;;;;;;;;33.75;19.75;;;;;1.49;65.64;101424.47;5121831;27;46360;-53
2024/01/14 08:08:52;;;;;;;;;37.50;26.50;;;;;1.51;65.32;101431.47;5112304;27;45882;-51
2024/01/14 08:11:18;;;;;;;;;38.00;27.25;;;;;1.52;65.41;101435.84;5114753;27;53384;-51
2024/01/14 08:13:43;;;;;;;;;39.25;30.75;;;;;1.48;65.13;101429.72;5118608;27;45299;-49
2024/01/14 08:16:09;;;;;;;;;24.75;24.75;;;;;1.45;65.21;101430.63;5109304;27;63969;-51
2024/01/14 08:18:35;;;;;;;;;35.00;27.50;;;;;1.47;65.68;101427.97;5114180;27;45541;-53
2024/01/14 08:21:00;;;;;;;;;30.25;20.50;;;;;1.49;65.47;101428.88;5116018;27;45465;-53
2024/01/14 08:23:28;;;;;;;;;28.50;23.00;;;;;1.52;65.00;101427.97;5119213;27;45709;-51
2024/01/14 08:25:53;;;;;;;;;27.75;21.50;;;;;1.55;65.19;101430.59;5116971;27;46025;-49
2024/01/14 08:28:19;;;;;;;;;38.00;24.25;;;;;1.56;65.15;101433.19;5116949;27;45732;-53
2024/01/14 08:30:44;;;;;;;;;39.25;31.00;;;;;1.57;64.70;101429.72;5118751;27;45547;-49
2024/01/14 08:33:09;;;;;;;;;36.50;28.75;;;;;1.58;64.68;101435.84;5112637;27;70029;-52
2024/01/14 08:35:35;;;;;;;;;32.25;20.75;;;;;1.59;64.97;101434.94;5111652;27;45645;-51
2024/01/14 08:38:00;;;;;;;;;47.50;39.00;;;;;1.59;64.64;101427.06;5116381;27;45436;-54
2024/01/14 08:40:26;;;;;;;;;41.75;29.50;;;;;1.57;64.83;101429.72;5117239;27;45391;-49
2024/01/14 08:42:51;;;;;;;;;47.00;28.50;;;;;1.58;64.58;101433.22;5112152;27;45843;-54
2024/01/14 08:45:17;;;;;;;;;36.50;22.75;;;;;1.58;65.21;101433.22;5116184;27;46552;-52
2024/01/14 08:47:43;;;;;;;;;30.00;27.25;;;;;1.59;64.88;101427.97;5117753;27;45508;-51
2024/01/14 08:50:09;;;;;;;;;47.00;31.00;;;;;1.62;64.84;101425.31;5111472;27;45444;-52
2024/01/14 08:52:36;;;;;;;;;44.25;29.50;;;;;1.64;65.25;101418.34;5111212;27;45368;-52
2024/01/14 08:55:02;;;;;;;;;41.25;32.25;;;;;1.65;64.64;101419.19;5112854;27;46922;-52
2024/01/14 08:57:27;;;;;;;;;40.50;32.75;;;;;1.65;64.73;101422.69;5112401;27;45399;-52
2024/01/14 08:59:53;;;;;;;;;39.00;32.00;;;;;1.65;64.73;101422.69;5116705;27;66170;-50
2024/01/14 09:02:18;;;;;;;;;37.00;32.00;;;;;1.65;64.95;101412.19;5117851;27;45548;-50
2024/01/14 09:04:43;;;;;;;;;27.50;17.00;;;;;1.65;64.83;101404.31;5109430;27;74513;-50
2024/01/14 09:07:09;;;;;;;;;34.50;29.75;;;;;1.64;64.50;101404.34;5116618;27;73176;-51
2024/01/14 09:09:34;;;;;;;;;41.50;32.25;;;;;1.63;64.74;101394.72;5112235;27;45723;-51
2024/01/14 09:11:59;;;;;;;;;40.25;33.50;;;;;1.64;64.26;101391.22;5106913;27;45455;-53
2024/01/14 09:14:25;;;;;;;;;25.25;24.50;;;;;1.65;64.78;101382.47;5100640;27;46787;-51
2024/01/14 09:16:51;;;;;;;;;38.50;31.75;;;;;1.69;64.28;101386.81;5114097;27;45430;-51
2024/01/14 09:19:16;;;;;;;;;41.25;29.25;;;;;1.69;64.49;101381.59;5112774;27;45455;-50
2024/01/14 09:21:41;;;;;;;;;38.50;32.00;;;;;1.72;64.13;101376.34;5115223;27;45472;-52
2024/01/14 09:24:08;;;;;;;;;46.75;33.25;;;;;1.75;64.19;101381.56;5105768;27;69471;-53
2024/01/14 09:26:33;;;;;;;;;40.50;32.25;;;;;1.78;64.14;101380.69;5121331;27;45487;-51
2024/01/14 09:28:58;;;;;;;;;20.50;20.00;;;;;1.79;63.86;101375.41;5112222;27;49881;-52
2024/01/14 09:31:24;;;;;;;;;47.75;34.25;;;;;1.81;64.19;101367.53;5110847;27;45292;-51
2024/01/14 09:33:49;;;;;;;;;36.00;30.50;;;;;1.83;63.76;101388.53;5118656;27;47123;-53
2024/01/14 09:36:14;;;;;;;;;48.50;32.75;;;;;1.81;64.10;101381.53;5105668;27;45517;-51
2024/01/14 09:38:40;;;;;;;;;44.75;33.00;;;;;1.84;64.20;101378.03;5111913;27;68172;-53
2024/01/14 09:41:44;;;;;;;;;38.50;33.25;;;;;1.86;64.04;101376.25;5111920;27;45407;-52
2024/01/14 09:44:14;;;;;;;;;37.50;31.75;;;;;1.87;63.99;101370.13;5117077;27;46088;-51
2024/01/14 09:46:40;;;;;;;;;33.50;28.00;;;;;1.85;63.80;101371.03;5115850;27;45455;-52
2024/01/14 09:49:06;;;;;;;;;43.25;33.75;;;;;1.86;63.70;101368.38;5113427;27;45669;-52
2024/01/14 09:51:31;;;;;;;;;35.75;28.00;;;;;1.91;63.88;101371.00;5109513;27;68481;-52
2024/01/14 09:53:58;;;;;;;;;49.50;37.75;;;;;1.95;63.77;101378.84;5113766;27;68101;-52
2024/01/14 09:56:24;;;;;;;;;34.50;30.50;;;;;2.02;63.92;101373.56;5107793;27;45585;-53
2024/01/14 09:58:49;;;;;;;;;36.25;24.25;;;;;2.05;63.42;101373.56;5104545;27;67930;-53
2024/01/14 10:01:16;;;;;;;;;41.50;31.75;;;;;2.05;63.38;101374.44;5109840;27;70439;-51
2024/01/14 10:03:42;;;;;;;;;39.75;28.50;;;;;2.08;63.79;101374.41;5111652;27;58512;-50
2024/01/14 10:06:07;;;;;;;;;32.50;24.50;;;;;2.11;63.41;101373.50;5145131;27;52932;-49
2024/01/14 10:08:32;;;;;;;;;45.00;29.25;;;;;2.12;63.13;101376.13;5108712;27;69681;-53
2024/01/14 10:10:58;;;;;;;;;35.50;31.75;;;;;2.15;63.24;101370.88;5111214;27;68614;-53
2024/01/14 10:13:24;;;;;;;;;47.25;28.75;;;;;2.19;63.58;101376.09;5105188;27;46528;-51
2024/01/14 10:15:50;;;;;;;;;37.75;28.00;;;;;2.19;62.87;101370.84;5106205;27;45612;-52
2024/01/14 10:18:16;;;;;;;;;49.25;30.25;;;;;2.21;63.23;101374.34;5134599;27;67932;-52
2024/01/14 10:20:41;;;;;;;;;45.00;35.50;;;;;2.22;62.93;101371.69;5109159;27;63239;-52
2024/01/14 10:23:08;;;;;;;;;42.75;31.75;;;;;2.23;62.82;101367.31;5108129;27;74347;-52
2024/01/14 10:25:33;;;;;;;;;39.75;36.75;;;;;2.24;63.24;101364.69;5103908;27;46007;-53
2024/01/14 10:28:04;;;;;;;;;42.00;26.25;;;;;2.24;63.04;101361.19;5103467;27;66662;-50
2024/01/14 10:30:30;;;;;;;;;48.00;38.00;;;;;2.27;63.22;101361.19;5115430;27;59352;-51
2024/01/14 10:32:55;;;;;;;;;36.75;26.00;;;;;2.25;62.52;101361.16;5111624;27;65229;-57
2024/01/14 10:35:21;;;;;;;;;23.00;16.50;;;;;2.24;62.54;101353.31;5110248;27;66108;-50
2024/01/14 10:37:46;;;;;;;;;42.75;32.50;;;;;2.26;63.02;101362.06;5112169;27;45841;-53
2024/01/14 10:40:12;;;;;;;;;62.75;47.75;;;;;2.26;62.81;101349.78;5115690;27;45514;-53
2024/01/14 10:42:37;;;;;;;;;39.25;31.00;;;;;2.17;62.03;101344.59;5113957;27;45889;-52
2024/01/14 10:45:06;;;;;;;;;45.50;26.75;;;;;2.23;62.59;101341.06;5114780;27;45545;-50
2024/01/14 10:47:33;;;;;;;;;41.25;26.75;;;;;2.27;62.21;101329.69;5111439;27;45514;-51
2024/01/14 10:50:00;;;;;;;;;20.50;20.50;;;;;2.36;62.54;101328.72;5112565;27;46357;-49
2024/01/14 10:52:26;;;;;;;;;35.75;29.00;;;;;2.49;62.76;101317.25;5114133;27;45947;-52
2024/01/14 10:54:56;;;;;;;;;53.50;36.50;;;;;2.64;61.38;101316.25;5111981;27;45704;-51
2024/01/14 10:57:34;;;;;;;;;36.50;24.00;;;;;2.70;61.94;101310.94;5113840;27;49784;-53
2024/01/14 11:00:04;;;;;;;;;45.75;33.50;;;;;2.71;61.17;101315.31;5112313;27;45510;-52
2024/01/14 11:02:32;;;;;;;;;40.25;26.00;;;;;2.70;61.57;101305.69;5111738;27;47059;-51
2024/01/14 11:04:58;;;;;;;;;56.25;37.50;;;;;2.76;61.89;101297.72;5130846;27;45595;-48
2024/01/14 11:07:23;;;;;;;;;61.00;40.50;;;;;2.81;60.73;101293.28;5111124;27;45391;-52
2024/01/14 11:09:50;;;;;;;;;44.00;35.50;;;;;2.91;61.34;101286.19;5143169;27;50769;-52